Redgranite, WI (54970)

8:43 AM CDT on August 29, 2015 (GMT -0500)
Mt. Morris Township | | Change Station
CLOSE
Current Station
Personal Weather Station
Location: Wautoma, WI
Elevation: 912 ft
Nearby Weather Stations

Elev 912 ft 44.08 °N, 89.21 °W | Updated 2 minutes ago

Overcast
Overcast
60.1 °F
Feels Like 60.1 °F
N
3.7
Wind Variable Wind from ENE

Today
High -- | Low -- °F
--% Chance of Precip.
Yesterday
High -- | Low -- °F
Precip. -- in
6:15 AM 7:37 PM
Full, 100% visible
Pressure 30.06 in
Visibility 7.0 miles
Clouds Overcast 400 ft
Dew Point 60 °F
Humidity 99%
Rainfall 0.20 in
Snow Depth Not available.
UV 0 out of 12
Pollen 8.90 out of 12
Air Quality Not available.
Flu Activity Not available.
METAR KY50 291256Z AUTO 09005KT 7SM OVC004 16/16 A3006 RMK AO2 TSNO T01550155 SLP177
Pressure 30.06 in
Visibility 7.0 miles
Clouds Overcast 400 ft
Dew Point 60 °F
Humidity 99%
Rainfall 0.20 in
Snow Depth Not available.
UV 0 out of 12
Pollen 8.90 out of 12
Air Quality Not available.
Flu Activity Not available.
METAR KY50 291256Z AUTO 09005KT 7SM OVC004 16/16 A3006 RMK AO2 TSNO T01550155 SLP177

10-Day Weather Forecast

×

Almanac

Astronomy

Aug. 29, 2015 Rise Set
Actual Time
Civil Twilight
Nautical Twilight
Astronomical Twilight
Moon
Length of Visible Light
Length of Day
Tomorrow will be .
, % of the Moon is Illuminated

Today's Extremes

State Highs State Lows

Community

WunderPhotos

Upload Photos

1,850,686 photos uploaded!

WunderBlogs® & News

Nearby

Air Quality

  Air Quality AQ Index Pollutant
Not available.

Snow Depth

Station Depth Elevation

Earthquake Activity

City Distance Mag. Time & Date
Minimum magnitude displayed is 2.5.

Coastal Water Temperatures

Place Temperature

Stations

Nearby Weather Stations

Station Location Temp. Windchill Dew Point Humidity Wind Precip. Elev Updated Type